Time;durP1;ratioP1;P1;durP2;ratioP2;P2;SDS_P1;SDS_P2;PMS_P1;PMS_P2;Temp;Humidity;BMP_temperature;BMP_pressure;BME280_temperature;BME280_humidity;BME280_pressure;Samples;Min_cycle;Max_cycle;Signal;HPM_P1;HPM_P2
2023/08/28 00:00:34;;;;;;;2.95;2.75;;;23.00;63.80;;;;;;5069241;28;20088;-33
2023/08/28 00:03:00;;;;;;;2.80;2.60;;;23.00;63.50;;;;;;5065673;28;20048;-34
2023/08/28 00:05:30;;;;;;;3.45;3.15;;;22.90;63.10;;;;;;5071879;28;20029;-33
2023/08/28 00:07:56;;;;;;;3.08;2.85;;;22.90;63.20;;;;;;5065272;28;20037;-33
2023/08/28 00:10:23;;;;;;;3.10;2.75;;;22.90;63.20;;;;;;5071172;28;20479;-35
2023/08/28 00:12:49;;;;;;;2.90;2.70;;;22.90;62.90;;;;;;5063676;28;20029;-34
2023/08/28 00:15:15;;;;;;;3.20;2.90;;;22.90;62.60;;;;;;5060967;28;20059;-34
2023/08/28 00:17:41;;;;;;;2.75;2.55;;;22.90;63.20;;;;;;5068615;28;20029;-34
2023/08/28 00:20:08;;;;;;;2.90;2.70;;;22.90;62.90;;;;;;5073884;28;20084;-34
2023/08/28 00:22:36;;;;;;;2.90;2.70;;;22.90;63.40;;;;;;5069061;28;20021;-34
2023/08/28 00:25:03;;;;;;;2.65;2.45;;;22.80;63.50;;;;;;5063868;28;20040;-34
2023/08/28 00:27:30;;;;;;;2.83;2.63;;;22.80;63.60;;;;;;5076942;28;20036;-34
2023/08/28 00:29:56;;;;;;;3.22;2.92;;;22.80;63.50;;;;;;5081064;28;20037;-33
2023/08/28 00:32:22;;;;;;;2.80;2.60;;;22.80;63.90;;;;;;5080890;28;20071;-34
2023/08/28 00:34:49;;;;;;;3.03;2.42;;;22.80;63.80;;;;;;5081095;28;20699;-34
2023/08/28 00:37:16;;;;;;;2.75;2.55;;;22.80;63.60;;;;;;5042994;28;20090;-34
2023/08/28 00:39:42;;;;;;;2.90;2.70;;;22.80;63.40;;;;;;5074790;28;20037;-34
2023/08/28 00:42:08;;;;;;;2.72;2.53;;;22.80;63.40;;;;;;5075054;28;20112;-34
2023/08/28 00:44:34;;;;;;;2.65;2.45;;;22.70;63.00;;;;;;5074653;28;20029;-34
2023/08/28 00:47:00;;;;;;;2.65;2.45;;;22.70;63.30;;;;;;5073784;28;20021;-34
2023/08/28 00:49:27;;;;;;;2.60;2.40;;;22.70;63.00;;;;;;5063857;28;20088;-34
2023/08/28 00:51:53;;;;;;;2.95;2.72;;;22.70;63.10;;;;;;5062401;28;20034;-33
2023/08/28 00:54:19;;;;;;;2.50;2.30;;;22.70;62.90;;;;;;5071439;28;20032;-34
2023/08/28 00:56:46;;;;;;;2.80;2.60;;;22.70;62.50;;;;;;5063348;28;20033;-34
2023/08/28 00:59:14;;;;;;;2.95;2.75;;;22.70;62.90;;;;;;5055603;28;20056;-34
2023/08/28 01:01:40;;;;;;;2.90;2.70;;;22.70;63.00;;;;;;5056052;28;20037;-33
2023/08/28 01:04:06;;;;;;;2.83;2.63;;;22.60;62.90;;;;;;5064848;28;20032;-34
2023/08/28 01:07:04;;;;;;;2.93;2.67;;;22.60;63.10;;;;;;5075778;28;20021;-34
2023/08/28 01:10:01;;;;;;;2.88;2.67;;;22.60;62.80;;;;;;5067052;28;20033;-34
2023/08/28 01:12:34;;;;;;;3.17;2.88;;;22.60;62.70;;;;;;5016688;28;20096;-35
2023/08/28 01:15:22;;;;;;;3.20;2.90;;;22.60;62.90;;;;;;5038905;28;20029;-34
2023/08/28 01:17:48;;;;;;;;;;;22.60;62.60;;;;;;5038091;28;20061;-35
2023/08/28 01:20:15;;;;;;;3.42;3.13;;;22.60;64.20;;;;;;5053585;28;20020;-33
2023/08/28 01:22:57;;;;;;;2.92;2.72;;;22.50;63.40;;;;;;5033900;28;20044;-33
2023/08/28 01:25:25;;;;;;;2.88;2.67;;;22.50;62.50;;;;;;5051321;28;20035;-34
2023/08/28 01:27:51;;;;;;;2.72;2.53;;;22.50;62.90;;;;;;5035840;28;20025;-34
2023/08/28 01:30:18;;;;;;;2.72;2.53;;;22.50;62.90;;;;;;5038016;28;20057;-35
2023/08/28 01:32:45;;;;;;;2.93;2.63;;;22.50;62.60;;;;;;5048049;28;20025;-34
2023/08/28 01:35:14;;;;;;;2.88;2.67;;;22.50;62.70;;;;;;5050560;28;20475;-34
2023/08/28 01:38:05;;;;;;;3.10;2.80;;;22.40;62.20;;;;;;5052575;28;20037;-33
2023/08/28 01:40:45;;;;;;;2.92;2.72;;;22.40;62.00;;;;;;5058639;28;20040;-34
2023/08/28 01:43:17;;;;;;;3.42;3.13;;;22.40;62.40;;;;;;5061587;28;20094;-34
2023/08/28 01:45:43;;;;;;;2.90;2.60;;;22.40;62.40;;;;;;5062374;28;20024;-33
2023/08/28 01:48:09;;;;;;;3.60;2.78;;;22.40;62.60;;;;;;5052687;28;20039;-33
2023/08/28 01:50:35;;;;;;;3.28;3.00;;;22.40;62.30;;;;;;5069028;28;20031;-34
2023/08/28 01:53:02;;;;;;;3.58;3.28;;;22.40;63.40;;;;;;5066621;28;20040;-33
2023/08/28 01:55:46;;;;;;;3.03;2.60;;;22.30;63.10;;;;;;5048343;28;20122;-34
2023/08/28 01:58:12;;;;;;;3.10;2.90;;;22.30;62.50;;;;;;5047166;28;20048;-34
2023/08/28 02:00:39;;;;;;;3.38;3.08;;;22.30;63.30;;;;;;5034719;28;20033;-36
2023/08/28 02:03:05;;;;;;;3.58;2.40;;;22.30;63.20;;;;;;5044200;28;20148;-34
2023/08/28 02:05:31;;;;;;;3.10;2.80;;;22.30;62.50;;;;;;5045954;28;20691;-33
2023/08/28 02:07:58;;;;;;;3.42;3.13;;;22.30;62.60;;;;;;5045128;28;20038;-33
2023/08/28 02:10:24;;;;;;;3.00;2.80;;;22.30;62.90;;;;;;5049698;28;20033;-34
2023/08/28 02:12:50;;;;;;;2.95;2.72;;;22.20;62.10;;;;;;5044265;28;20375;-34
2023/08/28 02:15:16;;;;;;;3.15;2.90;;;22.20;62.40;;;;;;5048311;28;20038;-34
2023/08/28 02:17:42;;;;;;;3.33;3.03;;;22.20;62.80;;;;;;5048045;28;20037;-34
2023/08/28 02:20:09;;;;;;;2.90;2.70;;;22.20;62.00;;;;;;5046621;28;20091;-38
2023/08/28 02:22:35;;;;;;;3.40;3.10;;;22.20;61.70;;;;;;5049025;28;20025;-34
2023/08/28 02:25:02;;;;;;;3.40;3.10;;;22.20;62.30;;;;;;5063988;28;20040;-34
2023/08/28 02:27:28;;;;;;;2.97;2.77;;;22.10;62.20;;;;;;5062745;28;20857;-33
2023/08/28 02:29:54;;;;;;;3.53;3.22;;;22.10;63.10;;;;;;5079837;28;20071;-33
2023/08/28 02:32:20;;;;;;;3.10;2.90;;;22.10;62.20;;;;;;5070911;28;20028;-33
2023/08/28 02:34:46;;;;;;;2.92;2.63;;;22.10;62.70;;;;;;5065659;28;20095;-33
2023/08/28 02:37:12;;;;;;;3.28;2.97;;;22.10;62.60;;;;;;5069208;28;20085;-33
2023/08/28 02:39:38;;;;;;;3.10;2.90;;;22.10;62.90;;;;;;5065980;28;20529;-35
2023/08/28 02:42:05;;;;;;;3.35;3.05;;;22.10;62.70;;;;;;5045702;28;20040;-34
2023/08/28 02:44:31;;;;;;;3.43;3.13;;;22.00;61.80;;;;;;5045891;28;20390;-34
2023/08/28 02:46:57;;;;;;;3.13;2.85;;;22.00;61.90;;;;;;5050392;28;20064;-33
2023/08/28 02:49:23;;;;;;;3.45;3.15;;;22.00;61.20;;;;;;5047924;28;20041;-33
2023/08/28 02:51:49;;;;;;;3.38;3.08;;;22.00;61.60;;;;;;5050891;28;20037;-34
2023/08/28 02:54:15;;;;;;;3.20;3.00;;;22.00;61.50;;;;;;5044519;28;20051;-34
2023/08/28 02:56:41;;;;;;;2.75;2.55;;;22.00;62.30;;;;;;5054629;28;20098;-34
2023/08/28 02:59:08;;;;;;;3.13;2.83;;;21.90;62.00;;;;;;5050305;28;20052;-34
2023/08/28 03:01:34;;;;;;;2.95;2.67;;;21.90;62.20;;;;;;5049054;28;20055;-34
2023/08/28 03:04:09;;;;;;;3.20;3.00;;;21.90;61.70;;;;;;5048004;28;20044;-34
2023/08/28 03:06:36;;;;;;;3.05;2.85;;;21.90;61.70;;;;;;5049182;28;20021;-34
2023/08/28 03:09:04;;;;;;;3.13;2.85;;;21.90;62.80;;;;;;5053194;28;20040;-33
2023/08/28 03:11:30;;;;;;;3.08;2.75;;;21.80;62.50;;;;;;5065165;28;20431;-34
2023/08/28 03:13:56;;;;;;;3.53;3.22;;;21.80;62.50;;;;;;5076651;28;20055;-34
2023/08/28 03:16:22;;;;;;;3.50;3.20;;;21.90;63.00;;;;;;5083893;28;20023;-34
2023/08/28 03:18:49;;;;;;;3.13;2.88;;;21.80;62.80;;;;;;5083152;28;20048;-34
2023/08/28 03:21:15;;;;;;;3.63;3.30;;;21.80;62.80;;;;;;5082937;28;20029;-34
2023/08/28 03:23:41;;;;;;;3.08;2.78;;;21.80;62.60;;;;;;5055004;28;20033;-34
2023/08/28 03:26:07;;;;;;;3.10;2.80;;;21.70;62.60;;;;;;5070621;28;20029;-34
2023/08/28 03:28:34;;;;;;;3.38;3.08;;;21.70;61.90;;;;;;5065908;28;20040;-35
2023/08/28 03:31:00;;;;;;;3.17;2.92;;;21.70;62.40;;;;;;5066013;28;20025;-33
2023/08/28 03:33:26;;;;;;;2.90;2.70;;;21.70;62.00;;;;;;5070616;28;20028;-33
2023/08/28 03:35:53;;;;;;;3.33;3.03;;;21.70;62.20;;;;;;5075419;28;20108;-33
2023/08/28 03:38:19;;;;;;;3.30;3.00;;;21.70;62.20;;;;;;5065381;28;20318;-33
2023/08/28 03:40:45;;;;;;;3.20;2.90;;;21.70;61.80;;;;;;5074959;28;20028;-33
2023/08/28 03:43:12;;;;;;;3.67;3.30;;;21.70;62.00;;;;;;5082901;28;20063;-33
2023/08/28 03:45:38;;;;;;;3.15;2.85;;;21.70;62.40;;;;;;5067131;28;20286;-33
2023/08/28 03:48:05;;;;;;;3.20;2.90;;;21.60;62.50;;;;;;5081575;28;20033;-33
2023/08/28 03:50:31;;;;;;;3.33;3.03;;;21.60;62.70;;;;;;5069587;28;20666;-34
2023/08/28 03:52:58;;;;;;;3.00;2.70;;;21.60;62.50;;;;;;5063924;28;20063;-33
2023/08/28 03:55:24;;;;;;;3.43;3.13;;;21.60;63.00;;;;;;5069377;28;20032;-34
2023/08/28 03:57:51;;;;;;;3.30;3.00;;;21.60;63.00;;;;;;5056645;28;20288;-33
2023/08/28 04:00:18;;;;;;;3.15;2.85;;;21.60;62.60;;;;;;5063467;28;20043;-33
2023/08/28 04:02:47;;;;;;;3.55;3.25;;;21.50;62.70;;;;;;5078364;28;20175;-34
2023/08/28 04:05:14;;;;;;;2.95;2.75;;;21.50;62.00;;;;;;5080528;28;20082;-33
2023/08/28 04:07:40;;;;;;;2.92;2.67;;;21.50;62.10;;;;;;5072502;28;20041;-34
2023/08/28 04:10:07;;;;;;;3.40;3.10;;;21.50;61.50;;;;;;5057826;28;20111;-33
2023/08/28 04:12:33;;;;;;;3.60;3.30;;;21.50;62.20;;;;;;5076792;28;20029;-34
2023/08/28 04:14:59;;;;;;;3.40;3.10;;;21.50;62.30;;;;;;5055056;28;20034;-33
2023/08/28 04:17:26;;;;;;;2.92;2.72;;;21.40;62.30;;;;;;5082022;28;20032;-33
2023/08/28 04:19:52;;;;;;;3.23;2.93;;;21.40;62.00;;;;;;5080972;28;20086;-34
2023/08/28 04:22:19;;;;;;;3.13;2.92;;;21.40;62.30;;;;;;5078242;28;20028;-33
2023/08/28 04:24:48;;;;;;;3.25;2.95;;;21.40;62.10;;;;;;5064614;28;20033;-33
2023/08/28 04:27:14;;;;;;;3.30;3.00;;;21.40;62.60;;;;;;5071942;28;20041;-34
2023/08/28 04:29:40;;;;;;;2.78;2.58;;;21.30;62.70;;;;;;5070781;28;20092;-33
2023/08/28 04:32:06;;;;;;;3.47;3.17;;;21.40;62.90;;;;;;5074020;28;20064;-33
2023/08/28 04:34:33;;;;;;;3.15;2.85;;;21.30;63.10;;;;;;5069172;28;20052;-34
2023/08/28 04:36:59;;;;;;;3.00;2.80;;;21.30;62.90;;;;;;5071870;28;20037;-34
2023/08/28 04:39:25;;;;;;;3.05;2.85;;;21.30;62.50;;;;;;5064800;28;20456;-34
2023/08/28 04:41:52;;;;;;;3.05;2.83;;;21.30;62.00;;;;;;5064607;28;20036;-34
2023/08/28 04:44:19;;;;;;;3.35;3.05;;;21.30;62.20;;;;;;5082067;28;20032;-34
2023/08/28 04:46:48;;;;;;;3.67;3.08;;;21.30;62.30;;;;;;5081360;28;20063;-34
2023/08/28 04:49:15;;;;;;;3.30;3.00;;;21.20;62.10;;;;;;5059350;28;20061;-33
2023/08/28 04:51:41;;;;;;;2.90;2.70;;;21.20;61.70;;;;;;5070722;28;20032;-34
2023/08/28 04:54:07;;;;;;;3.30;3.00;;;21.20;62.00;;;;;;5063166;28;20548;-34
2023/08/28 04:56:33;;;;;;;3.42;3.13;;;21.20;61.80;;;;;;5068733;28;20025;-34
2023/08/28 04:59:00;;;;;;;2.90;2.70;;;21.20;62.30;;;;;;5065911;28;20045;-34
2023/08/28 05:01:26;;;;;;;3.37;3.07;;;21.20;62.70;;;;;;5074997;28;20019;-33
2023/08/28 05:03:52;;;;;;;3.25;2.95;;;21.10;62.80;;;;;;5080324;28;20366;-34
2023/08/28 05:06:18;;;;;;;3.33;2.92;;;21.10;61.80;;;;;;5070912;28;21260;-34
2023/08/28 05:08:44;;;;;;;2.85;2.65;;;21.10;62.80;;;;;;5077599;28;20477;-33
2023/08/28 05:11:10;;;;;;;3.42;3.13;;;21.10;62.50;;;;;;5066405;28;20037;-34
2023/08/28 05:13:36;;;;;;;3.60;3.30;;;21.10;63.20;;;;;;5070885;28;20033;-34
2023/08/28 05:16:03;;;;;;;3.63;3.33;;;21.10;65.70;;;;;;5075471;28;20044;-34
2023/08/28 05:18:29;;;;;;;3.37;3.07;;;21.10;66.50;;;;;;5075233;28;20032;-34
2023/08/28 05:20:55;;;;;;;3.40;3.10;;;21.10;67.10;;;;;;5079363;28;20098;-34
2023/08/28 05:23:25;;;;;;;3.25;2.95;;;21.10;67.10;;;;;;5063442;28;20079;-34
2023/08/28 05:25:54;;;;;;;3.15;2.85;;;21.10;67.30;;;;;;5064184;28;20036;-35
2023/08/28 05:28:21;;;;;;;3.28;2.97;;;21.00;67.40;;;;;;5060932;28;20024;-34
2023/08/28 05:30:47;;;;;;;3.47;3.17;;;21.10;67.60;;;;;;5080069;28;20043;-33
2023/08/28 05:33:13;;;;;;;2.47;2.28;;;21.10;67.80;;;;;;5072706;28;20031;-34
2023/08/28 05:35:39;;;;;;;3.58;3.28;;;21.10;67.90;;;;;;5073858;28;20070;-34
2023/08/28 05:38:06;;;;;;;3.47;3.17;;;21.10;68.00;;;;;;5072031;28;20512;-34
2023/08/28 05:40:32;;;;;;;3.35;3.10;;;21.10;68.30;;;;;;5058812;28;20033;-33
2023/08/28 05:42:59;;;;;;;3.30;3.00;;;21.10;68.50;;;;;;5071170;28;20036;-33
2023/08/28 05:45:25;;;;;;;3.53;3.22;;;21.10;68.60;;;;;;5062287;28;20281;-34
2023/08/28 05:47:51;;;;;;;3.70;3.40;;;21.10;68.90;;;;;;5072248;28;20046;-33
2023/08/28 05:50:18;;;;;;;3.60;3.30;;;21.10;68.90;;;;;;5069862;28;20052;-34
2023/08/28 05:52:45;;;;;;;3.42;3.13;;;21.20;69.10;;;;;;5068416;28;20060;-33
2023/08/28 05:55:11;;;;;;;3.65;3.22;;;21.20;69.20;;;;;;5067223;28;20037;-33
2023/08/28 05:57:37;;;;;;;3.80;3.40;;;21.20;69.30;;;;;;5062824;28;20036;-34
2023/08/28 06:00:04;;;;;;;3.70;3.40;;;21.20;69.40;;;;;;5061212;28;20037;-34
2023/08/28 06:02:31;;;;;;;3.97;3.67;;;21.20;69.40;;;;;;5066486;28;20078;-34
2023/08/28 06:04:57;;;;;;;4.20;3.80;;;21.30;69.60;;;;;;5045962;28;20044;-34
2023/08/28 06:07:23;;;;;;;3.63;3.33;;;21.30;69.70;;;;;;5069889;28;20013;-33
2023/08/28 06:09:49;;;;;;;3.80;3.50;;;21.30;69.70;;;;;;5062754;28;20037;-34
2023/08/28 06:12:15;;;;;;;3.83;3.53;;;21.30;69.80;;;;;;5050317;28;20058;-34
2023/08/28 06:14:42;;;;;;;4.68;3.75;;;21.30;70.00;;;;;;5045721;28;20685;-34
2023/08/28 06:17:08;;;;;;;4.28;3.88;;;21.40;70.10;;;;;;5051975;28;21986;-37
2023/08/28 06:19:34;;;;;;;3.55;3.25;;;21.40;70.20;;;;;;5049871;28;20067;-34
2023/08/28 06:22:04;;;;;;;3.70;3.40;;;21.40;70.30;;;;;;5050794;28;20030;-34
2023/08/28 06:24:31;;;;;;;4.07;3.78;;;21.40;70.40;;;;;;5046347;28;20033;-34
2023/08/28 06:26:57;;;;;;;4.38;3.65;;;21.40;70.50;;;;;;5054763;28;20033;-34
2023/08/28 06:29:24;;;;;;;4.13;3.73;;;21.40;70.50;;;;;;5049382;28;20038;-34
2023/08/28 06:31:50;;;;;;;4.28;3.88;;;21.50;70.50;;;;;;5036235;28;20028;-35
2023/08/28 06:34:17;;;;;;;4.05;3.63;;;21.50;70.60;;;;;;5038642;28;20051;-34
2023/08/28 06:36:45;;;;;;;4.33;3.93;;;21.50;70.60;;;;;;5032162;28;20068;-35
2023/08/28 06:39:12;;;;;;;3.85;3.55;;;21.50;70.70;;;;;;5039527;28;20041;-33
2023/08/28 06:41:38;;;;;;;4.32;3.90;;;21.60;70.70;;;;;;5026036;28;20037;-35
2023/08/28 06:44:04;;;;;;;4.05;3.58;;;21.60;70.60;;;;;;5045908;28;20501;-34
2023/08/28 06:46:31;;;;;;;4.90;4.10;;;21.60;70.70;;;;;;5046551;28;20068;-34
2023/08/28 06:48:58;;;;;;;4.10;3.70;;;21.60;70.70;;;;;;5047016;28;20029;-34
2023/08/28 06:51:24;;;;;;;4.43;4.03;;;21.60;70.80;;;;;;5048096;28;20044;-34
2023/08/28 06:53:51;;;;;;;4.65;4.15;;;21.60;70.80;;;;;;5048308;28;20029;-34
2023/08/28 06:56:17;;;;;;;;;;;21.70;70.90;;;;;;5045010;28;20032;-33
2023/08/28 06:58:43;;;;;;;3.83;3.50;;;21.70;71.00;;;;;;5049441;28;19937;-34
2023/08/28 07:01:09;;;;;;;4.70;4.22;;;21.60;71.10;;;;;;5075717;28;20036;-34
2023/08/28 07:03:36;;;;;;;4.63;4.22;;;21.70;71.10;;;;;;5083227;28;20056;-34
2023/08/28 07:06:02;;;;;;;4.20;3.70;;;21.70;71.10;;;;;;5076499;28;20029;-34
2023/08/28 07:08:28;;;;;;;3.95;3.55;;;21.70;71.20;;;;;;5083454;28;20023;-34
2023/08/28 07:10:54;;;;;;;4.43;3.95;;;21.70;71.20;;;;;;5075837;28;20025;-34
2023/08/28 07:13:20;;;;;;;3.55;3.25;;;21.70;71.20;;;;;;5067033;28;20021;-34
2023/08/28 07:15:47;;;;;;;5.72;4.07;;;21.80;71.30;;;;;;5067569;28;20042;-34
2023/08/28 07:18:13;;;;;;;4.57;4.18;;;21.70;71.30;;;;;;5075003;28;20020;-34
2023/08/28 07:20:39;;;;;;;4.00;3.60;;;21.80;71.40;;;;;;5058440;28;20032;-34
2023/08/28 07:23:05;;;;;;;4.90;4.40;;;21.80;71.30;;;;;;5070334;28;20112;-34
2023/08/28 07:25:31;;;;;;;4.10;3.70;;;21.80;71.30;;;;;;5076582;28;20045;-35
2023/08/28 07:27:57;;;;;;;4.53;3.58;;;21.80;71.40;;;;;;5075293;28;20033;-34
2023/08/28 07:30:24;;;;;;;4.35;3.95;;;21.80;71.50;;;;;;5083615;28;20039;-34
2023/08/28 07:32:50;;;;;;;4.47;4.07;;;21.80;71.50;;;;;;5082687;28;20495;-34
2023/08/28 07:35:16;;;;;;;4.18;3.78;;;21.80;71.50;;;;;;5076243;28;20058;-34
2023/08/28 07:37:42;;;;;;;4.18;3.78;;;21.90;71.60;;;;;;5083494;28;20670;-35
2023/08/28 07:40:09;;;;;;;4.70;4.30;;;21.90;71.70;;;;;;5081484;28;20040;-34
2023/08/28 07:42:35;;;;;;;4.13;3.67;;;21.90;71.70;;;;;;5071330;28;20033;-34
2023/08/28 07:45:02;;;;;;;4.10;3.70;;;21.90;71.70;;;;;;5080367;28;20037;-33
2023/08/28 07:47:28;;;;;;;4.03;3.63;;;21.90;71.80;;;;;;5052296;28;20025;-34
2023/08/28 07:49:54;;;;;;;5.68;4.40;;;21.90;71.90;;;;;;5074858;28;20028;-34
2023/08/28 07:52:21;;;;;;;3.67;3.35;;;21.90;71.70;;;;;;5074894;28;20037;-34
2023/08/28 07:54:47;;;;;;;4.40;4.00;;;21.90;71.90;;;;;;5049185;28;20041;-34
2023/08/28 07:57:13;;;;;;;4.20;3.80;;;22.00;71.90;;;;;;5052939;28;20024;-34
2023/08/28 07:59:39;;;;;;;4.20;3.80;;;22.00;71.90;;;;;;5047749;28;20859;-34
2023/08/28 08:02:06;;;;;;;4.30;3.83;;;22.00;71.90;;;;;;5046915;28;20021;-34
2023/08/28 08:04:32;;;;;;;4.22;3.83;;;22.00;71.90;;;;;;5048719;28;20044;-34
2023/08/28 08:06:58;;;;;;;4.28;3.40;;;22.00;71.90;;;;;;5046491;28;20037;-35
2023/08/28 08:09:25;;;;;;;4.00;3.60;;;22.00;72.00;;;;;;5045353;28;20060;-34
2023/08/28 08:11:51;;;;;;;4.05;3.50;;;22.00;72.20;;;;;;5041224;28;20029;-35
2023/08/28 08:14:17;;;;;;;3.90;3.57;;;22.10;72.20;;;;;;5045882;28;20036;-34
2023/08/28 08:16:43;;;;;;;3.70;3.40;;;22.10;72.10;;;;;;5048124;28;20033;-33
2023/08/28 08:19:10;;;;;;;2.63;2.42;;;22.10;72.20;;;;;;5046135;28;20394;-35
2023/08/28 08:21:36;;;;;;;3.70;3.40;;;22.10;72.30;;;;;;5047036;28;20109;-34
2023/08/28 08:24:03;;;;;;;3.70;3.40;;;22.10;72.40;;;;;;5051359;28;20029;-35
2023/08/28 08:26:29;;;;;;;4.13;3.63;;;22.10;72.40;;;;;;5034933;28;20320;-34
2023/08/28 08:28:55;;;;;;;3.95;3.58;;;22.10;72.50;;;;;;5055452;28;20029;-34
2023/08/28 08:31:21;;;;;;;4.63;4.00;;;22.10;72.50;;;;;;5069020;28;20020;-34
2023/08/28 08:33:47;;;;;;;3.92;3.60;;;22.10;72.50;;;;;;5067482;28;20036;-34
2023/08/28 08:36:17;;;;;;;3.25;2.95;;;22.10;72.60;;;;;;5071115;28;20052;-34
2023/08/28 08:38:43;;;;;;;3.63;3.33;;;22.20;72.60;;;;;;5052976;28;20040;-34
2023/08/28 08:41:10;;;;;;;3.55;3.25;;;22.20;72.60;;;;;;5066605;28;20509;-34
2023/08/28 08:43:37;;;;;;;3.63;3.33;;;22.20;72.70;;;;;;5075773;28;20508;-34
2023/08/28 08:46:07;;;;;;;3.55;3.25;;;22.20;72.90;;;;;;5060598;28;20707;-34
2023/08/28 08:48:36;;;;;;;4.32;3.30;;;22.20;72.70;;;;;;5070629;28;20039;-34
2023/08/28 08:51:06;;;;;;;3.42;3.13;;;22.20;72.80;;;;;;5078665;28;20036;-33
2023/08/28 08:54:04;;;;;;;3.53;3.22;;;22.20;72.80;;;;;;5069537;28;20056;-35
2023/08/28 08:56:32;;;;;;;3.50;3.20;;;22.30;72.90;;;;;;5050473;28;20025;-38
2023/08/28 08:58:59;;;;;;;3.22;2.92;;;22.30;72.90;;;;;;5078300;28;20523;-34
2023/08/28 09:01:26;;;;;;;3.10;2.80;;;22.30;73.00;;;;;;5051124;28;20025;-34
2023/08/28 09:03:52;;;;;;;3.58;2.97;;;22.30;73.00;;;;;;5073292;28;20037;-34
2023/08/28 09:06:18;;;;;;;3.03;2.63;;;22.30;73.10;;;;;;5077630;28;20021;-34
2023/08/28 09:08:44;;;;;;;3.47;3.17;;;22.30;73.10;;;;;;5071003;28;20028;-34
2023/08/28 09:11:11;;;;;;;3.33;3.03;;;22.30;73.20;;;;;;5037223;28;20048;-34
2023/08/28 09:13:38;;;;;;;4.05;2.97;;;22.30;73.10;;;;;;5069951;28;20041;-35
2023/08/28 09:16:04;;;;;;;3.17;2.88;;;22.30;73.20;;;;;;5069735;28;20051;-34
2023/08/28 09:18:31;;;;;;;3.30;3.00;;;22.30;73.20;;;;;;5063545;28;20767;-34
2023/08/28 09:21:10;;;;;;;2.97;2.78;;;22.40;73.20;;;;;;5064283;28;20326;-35
2023/08/28 09:23:43;;;;;;;2.88;2.67;;;22.40;73.20;;;;;;5068836;28;20037;-34
2023/08/28 09:26:12;;;;;;;3.17;2.72;;;22.40;73.30;;;;;;5070731;28;20048;-35
2023/08/28 09:28:39;;;;;;;2.78;2.58;;;22.40;73.30;;;;;;5076820;28;20043;-34
2023/08/28 09:31:05;;;;;;;3.22;2.92;;;22.40;73.30;;;;;;5066420;28;20064;-35
2023/08/28 09:33:44;;;;;;;3.28;2.63;;;22.40;73.40;;;;;;5068703;28;20045;-35
2023/08/28 09:36:18;;;;;;;2.65;2.45;;;22.40;73.50;;;;;;5063454;28;20056;-35
2023/08/28 09:38:44;;;;;;;2.97;2.78;;;22.40;73.50;;;;;;5045186;28;20486;-34
2023/08/28 09:41:10;;;;;;;2.83;2.60;;;22.40;73.60;;;;;;5080384;28;20045;-35
2023/08/28 09:43:37;;;;;;;2.47;2.27;;;22.40;73.50;;;;;;5074844;28;20106;-34
2023/08/28 09:46:07;;;;;;;2.57;2.37;;;22.40;73.50;;;;;;5071309;28;20031;-34
2023/08/28 09:48:34;;;;;;;2.30;2.10;;;22.50;73.70;;;;;;5057933;28;20278;-35
2023/08/28 09:51:09;;;;;;;2.22;2.03;;;22.50;73.70;;;;;;5071810;28;20044;-34
2023/08/28 09:53:35;;;;;;;2.63;2.38;;;22.50;73.70;;;;;;5066920;28;20064;-35
2023/08/28 09:56:02;;;;;;;2.30;2.10;;;22.50;73.70;;;;;;5077947;28;20043;-35
2023/08/28 09:58:28;;;;;;;3.33;2.10;;;22.50;73.80;;;;;;5069013;28;20037;-34
2023/08/28 10:00:55;;;;;;;2.33;2.13;;;22.50;73.70;;;;;;5063659;28;20102;-35
2023/08/28 10:03:23;;;;;;;2.10;1.90;;;22.50;73.70;;;;;;5063496;28;20029;-35
2023/08/28 10:05:50;;;;;;;1.73;1.52;;;22.50;73.40;;;;;;5058282;28;20489;-34
2023/08/28 10:08:17;;;;;;;2.00;1.52;;;22.50;73.20;;;;;;5073175;28;20047;-34
2023/08/28 10:10:50;;;;;;;1.50;1.40;;;22.50;71.60;;;;;;5067537;28;20029;-34
2023/08/28 10:13:17;;;;;;;2.20;2.00;;;22.50;71.90;;;;;;5073937;28;20033;-35
2023/08/28 10:16:04;;;;;;;1.80;1.60;;;22.50;72.40;;;;;;5044747;28;20037;-35
2023/08/28 10:18:51;;;;;;;1.70;1.60;;;22.50;72.70;;;;;;5046800;28;20047;-35
2023/08/28 10:21:17;;;;;;;2.15;2.00;;;22.50;73.10;;;;;;5051217;28;20324;-34
2023/08/28 10:23:43;;;;;;;1.80;1.70;;;22.50;73.40;;;;;;5058847;28;20033;-35
2023/08/28 10:26:09;;;;;;;1.92;1.83;;;22.50;73.30;;;;;;5076531;28;20074;-35
2023/08/28 10:28:36;;;;;;;1.73;1.60;;;22.50;73.40;;;;;;5085010;28;20036;-35
2023/08/28 10:31:02;;;;;;;1.50;1.40;;;22.50;73.30;;;;;;5074866;28;20037;-34
2023/08/28 10:33:28;;;;;;;1.50;1.40;;;22.50;72.60;;;;;;5056396;28;20116;-34
2023/08/28 10:35:54;;;;;;;1.40;1.20;;;22.50;71.50;;;;;;5048283;28;20712;-34
2023/08/28 10:38:21;;;;;;;1.43;1.30;;;22.50;71.20;;;;;;5077210;28;20032;-35
2023/08/28 10:40:51;;;;;;;1.40;1.30;;;22.50;71.10;;;;;;5051326;28;20043;-35
2023/08/28 10:43:19;;;;;;;1.48;1.38;;;22.50;71.20;;;;;;5066128;28;20497;-34
2023/08/28 10:45:45;;;;;;;1.17;1.08;;;22.50;71.90;;;;;;5054673;28;20040;-36
2023/08/28 10:48:11;;;;;;;1.52;1.40;;;22.50;72.10;;;;;;5034672;28;20489;-35
2023/08/28 10:50:38;;;;;;;1.40;1.30;;;22.50;72.40;;;;;;5078874;28;20037;-35
2023/08/28 10:53:05;;;;;;;1.67;1.40;;;22.50;72.60;;;;;;5076737;28;21662;-35
2023/08/28 10:55:31;;;;;;;1.60;1.50;;;22.50;72.90;;;;;;5084256;28;20036;-35
2023/08/28 10:58:02;;;;;;;1.67;1.50;;;22.50;72.90;;;;;;5050684;28;20025;-34
2023/08/28 11:00:29;;;;;;;1.20;1.10;;;22.50;72.90;;;;;;5073409;28;20072;-35
2023/08/28 11:03:17;;;;;;;0.90;0.90;;;22.50;72.30;;;;;;5081581;28;20029;-35
2023/08/28 11:05:44;;;;;;;1.40;1.30;;;22.50;71.10;;;;;;5076506;28;20044;-35
2023/08/28 11:08:11;;;;;;;1.50;1.10;;;22.50;71.30;;;;;;5076341;28;20052;-35
2023/08/28 11:10:39;;;;;;;1.30;1.17;;;22.50;71.90;;;;;;5070540;28;20293;-35
2023/08/28 11:13:11;;;;;;;1.20;1.08;;;22.50;72.40;;;;;;5057028;28;20124;-35
2023/08/28 11:15:41;;;;;;;1.20;1.10;;;22.50;72.60;;;;;;5065190;28;20029;-35
2023/08/28 11:18:20;;;;;;;1.00;1.00;;;22.50;72.80;;;;;;5066245;28;20037;-34
2023/08/28 11:20:53;;;;;;;1.73;1.15;;;22.50;72.90;;;;;;5072684;28;20033;-35
2023/08/28 11:23:26;;;;;;;1.08;0.98;;;22.50;73.00;;;;;;5057219;28;20033;-35
2023/08/28 11:25:52;;;;;;;1.20;1.10;;;22.50;73.00;;;;;;5065760;28;20135;-35
2023/08/28 11:28:29;;;;;;;1.20;1.10;;;22.50;73.00;;;;;;5065819;28;20021;-34
2023/08/28 11:31:05;;;;;;;1.48;0.95;;;22.50;73.10;;;;;;5080237;28;20080;-34
2023/08/28 11:33:41;;;;;;;0.95;0.90;;;22.50;73.10;;;;;;5069210;28;20055;-34
2023/08/28 11:36:08;;;;;;;1.20;1.10;;;22.50;73.10;;;;;;5073661;28;20057;-35
2023/08/28 11:38:35;;;;;;;0.80;0.70;;;22.50;73.10;;;;;;5071221;28;20036;-35
2023/08/28 11:41:04;;;;;;;0.80;0.75;;;22.50;73.20;;;;;;5073500;28;20024;-35
2023/08/28 11:43:46;;;;;;;1.15;0.80;;;22.50;72.40;;;;;;5072589;28;20087;-35
2023/08/28 11:46:12;;;;;;;0.80;0.80;;;22.50;71.40;;;;;;5072498;28;20059;-34
2023/08/28 11:48:45;;;;;;;1.00;0.80;;;22.50;71.70;;;;;;5065395;28;20029;-35
2023/08/28 11:51:11;;;;;;;1.00;0.88;;;22.50;72.10;;;;;;5061918;28;20083;-35
2023/08/28 11:53:40;;;;;;;1.20;1.10;;;22.50;72.80;;;;;;5065651;28;20029;-34
2023/08/28 11:56:07;;;;;;;0.77;0.77;;;22.50;72.90;;;;;;5061736;28;20025;-35
2023/08/28 11:58:33;;;;;;;;;;;22.50;72.90;;;;;;5073150;28;20063;-34
2023/08/28 12:01:00;;;;;;;0.80;0.80;;;22.50;73.00;;;;;;5079694;28;19919;-33
2023/08/28 12:03:27;;;;;;;1.00;0.88;;;22.50;73.10;;;;;;5064502;28;20036;-34
2023/08/28 12:06:07;;;;;;;0.93;0.90;;;22.50;73.20;;;;;;5079326;28;20115;-34
2023/08/28 12:08:59;;;;;;;0.80;0.80;;;22.50;73.10;;;;;;5070635;28;20554;-34
2023/08/28 12:11:25;;;;;;;1.27;0.90;;;22.50;73.90;;;;;;4997828;28;20049;-34
2023/08/28 12:13:52;;;;;;;0.88;0.85;;;22.50;73.30;;;;;;4992673;28;20042;-34
2023/08/28 12:16:18;;;;;;;0.80;0.80;;;22.50;73.30;;;;;;4961789;28;20034;-34
2023/08/28 12:18:47;;;;;;;0.90;0.80;;;22.50;73.30;;;;;;4983828;28;20042;-33
2023/08/28 12:21:15;;;;;;;1.00;0.90;;;22.50;73.40;;;;;;4993013;28;20050;-35
2023/08/28 12:23:47;;;;;;;0.77;0.77;;;22.50;73.40;;;;;;4991181;28;20035;-34
2023/08/28 12:26:15;;;;;;;0.65;0.65;;;22.50;73.40;;;;;;4996239;28;20023;-34
2023/08/28 12:28:42;;;;;;;0.80;0.70;;;22.50;73.50;;;;;;4990577;28;20110;-34
2023/08/28 12:31:08;;;;;;;0.57;0.50;;;22.50;73.60;;;;;;4982375;28;20027;-34
2023/08/28 12:33:44;;;;;;;0.67;0.67;;;22.50;73.50;;;;;;4973700;28;20210;-35
2023/08/28 12:36:11;;;;;;;0.65;0.60;;;22.50;73.40;;;;;;4995977;28;20069;-34
2023/08/28 12:38:47;;;;;;;0.65;0.55;;;22.50;72.60;;;;;;4995646;28;20034;-34
2023/08/28 12:41:14;;;;;;;0.80;0.70;;;22.50;72.00;;;;;;4981377;28;20041;-34
2023/08/28 12:43:41;;;;;;;0.82;0.43;;;22.50;72.20;;;;;;4972691;28;20117;-33
2023/08/28 12:46:07;;;;;;;0.52;0.52;;;22.50;72.20;;;;;;4981886;28;20038;-33
2023/08/28 12:48:33;;;;;;;0.50;0.50;;;22.50;72.40;;;;;;5010505;28;20041;-34
2023/08/28 12:50:59;;;;;;;0.80;0.60;;;22.50;72.80;;;;;;5062675;28;20021;-34